Naomi, Kentucky
Current Conditions -  °F | °C
As of 10:55 AM on Friday 31 Oct 2014 (Local Time) from KSME Reporting Station
Light Rain Light Rain  
Wind Chill: 43°   Ceiling: 400
Heat Index: 43°   Visibility: 5mi
Dew Point: 43°   Wind: 0mph
Humidity: 100%   Direction: NA
Pressure: 30.01"   Gusts: NA
Location:  37.0701°N, 84.793°W
Report Text: KSME 311455Z AUTO 00000KT 5SM -RA OVC004 06/06 A3001 RMK AO2 P0003
Loading
Personal Weather Stations






























Interactive Weather Map
Tropical Storm Tracking
New forecast layout! Learn more

10-Day Weather Forecast

Advertisements
Track Severe Weather on mobile